Hanover Township, Pennsylvania
Current Conditions -  °F | °C
As of 9:54 AM on Monday 24 Nov 2014 (Local Time) from KAVP Reporting Station
Overcast Overcast  
Wind Chill: 68°   Ceiling: 2500
Heat Index: 68°   Visibility: 10mi
Dew Point: 56°   Wind: 16mph
Humidity: 65%   Direction: 200°SSW
Pressure: 29.59"   Gusts: 26mph
Location:  41.1921°N, 75.9213°W
Report Text: KAVP 241454Z 20014G23KT 10SM BKN025 OVC032 20/13 A2959 RMK AO2 SLP015 T02000133 51007
Loading
Personal Weather Stations






























Interactive Weather Map New forecast layout! Learn more

10-Day Weather Forecast

Advertisements
Track Severe Weather on mobile